sensor_id;sensor_type;location;lat;lon;timestamp;P1;durP1;ratioP1;P2;durP2;ratioP2
3819;SDS011;1925;51.356;9.530;2023-02-26T00:00:37;1.57;;;0.70;;
3819;SDS011;1925;51.356;9.530;2023-02-26T00:03:03;2.80;;;0.60;;
3819;SDS011;1925;51.356;9.530;2023-02-26T00:05:29;1.97;;;0.80;;
3819;SDS011;1925;51.356;9.530;2023-02-26T00:07:55;1.30;;;0.70;;
3819;SDS011;1925;51.356;9.530;2023-02-26T00:10:21;3.97;;;0.80;;
3819;SDS011;1925;51.356;9.530;2023-02-26T00:12:47;4.70;;;1.15;;
3819;SDS011;1925;51.356;9.530;2023-02-26T00:15:13;4.03;;;1.17;;
3819;SDS011;1925;51.356;9.530;2023-02-26T00:17:43;3.72;;;1.17;;
3819;SDS011;1925;51.356;9.530;2023-02-26T00:20:10;1.77;;;1.10;;
3819;SDS011;1925;51.356;9.530;2023-02-26T00:22:37;5.15;;;1.40;;
3819;SDS011;1925;51.356;9.530;2023-02-26T00:25:03;1.65;;;1.10;;
3819;SDS011;1925;51.356;9.530;2023-02-26T00:27:29;2.25;;;1.20;;
3819;SDS011;1925;51.356;9.530;2023-02-26T00:29:55;4.65;;;1.25;;
3819;SDS011;1925;51.356;9.530;2023-02-26T00:32:21;1.17;;;0.90;;
3819;SDS011;1925;51.356;9.530;2023-02-26T00:34:47;5.25;;;1.40;;
3819;SDS011;1925;51.356;9.530;2023-02-26T00:37:36;5.93;;;1.90;;
3819;SDS011;1925;51.356;9.530;2023-02-26T00:42:48;2.35;;;1.70;;
3819;SDS011;1925;51.356;9.530;2023-02-26T00:45:14;2.88;;;1.33;;
3819;SDS011;1925;51.356;9.530;2023-02-26T00:47:47;3.03;;;1.13;;
3819;SDS011;1925;51.356;9.530;2023-02-26T00:50:17;3.05;;;1.35;;
3819;SDS011;1925;51.356;9.530;2023-02-26T00:55:13;2.00;;;1.02;;
3819;SDS011;1925;51.356;9.530;2023-02-26T00:57:39;2.75;;;1.00;;
3819;SDS011;1925;51.356;9.530;2023-02-26T01:00:05;6.53;;;1.67;;
3819;SDS011;1925;51.356;9.530;2023-02-26T01:02:33;1.50;;;1.02;;
3819;SDS011;1925;51.356;9.530;2023-02-26T01:04:59;4.03;;;1.30;;
3819;SDS011;1925;51.356;9.530;2023-02-26T01:07:25;2.25;;;1.45;;
3819;SDS011;1925;51.356;9.530;2023-02-26T01:09:53;2.33;;;1.15;;
3819;SDS011;1925;51.356;9.530;2023-02-26T01:12:19;4.47;;;1.67;;
3819;SDS011;1925;51.356;9.530;2023-02-26T01:14:45;3.30;;;1.88;;
3819;SDS011;1925;51.356;9.530;2023-02-26T01:17:16;3.67;;;2.03;;
3819;SDS011;1925;51.356;9.530;2023-02-26T01:19:49;3.78;;;2.60;;
3819;SDS011;1925;51.356;9.530;2023-02-26T01:22:21;4.07;;;1.92;;
3819;SDS011;1925;51.356;9.530;2023-02-26T01:24:48;4.95;;;1.30;;
3819;SDS011;1925;51.356;9.530;2023-02-26T01:27:18;5.30;;;1.02;;
3819;SDS011;1925;51.356;9.530;2023-02-26T01:29:44;2.58;;;1.40;;
3819;SDS011;1925;51.356;9.530;2023-02-26T01:32:15;3.90;;;1.45;;
3819;SDS011;1925;51.356;9.530;2023-02-26T01:34:45;2.80;;;1.60;;
3819;SDS011;1925;51.356;9.530;2023-02-26T01:42:43;2.92;;;1.70;;
3819;SDS011;1925;51.356;9.530;2023-02-26T01:45:12;1.77;;;1.02;;
3819;SDS011;1925;51.356;9.530;2023-02-26T01:47:44;4.43;;;1.60;;
3819;SDS011;1925;51.356;9.530;2023-02-26T01:50:15;6.75;;;2.90;;
3819;SDS011;1925;51.356;9.530;2023-02-26T01:55:18;4.90;;;2.55;;
3819;SDS011;1925;51.356;9.530;2023-02-26T01:57:44;3.50;;;2.45;;
3819;SDS011;1925;51.356;9.530;2023-02-26T02:00:10;6.00;;;2.00;;
3819;SDS011;1925;51.356;9.530;2023-02-26T02:02:36;3.55;;;2.08;;
3819;SDS011;1925;51.356;9.530;2023-02-26T02:05:03;1.97;;;1.40;;
3819;SDS011;1925;51.356;9.530;2023-02-26T02:07:31;3.42;;;1.88;;
3819;SDS011;1925;51.356;9.530;2023-02-26T02:09:57;5.15;;;2.50;;
3819;SDS011;1925;51.356;9.530;2023-02-26T02:17:45;2.90;;;1.08;;
3819;SDS011;1925;51.356;9.530;2023-02-26T02:25:34;2.95;;;1.15;;
3819;SDS011;1925;51.356;9.530;2023-02-26T02:28:10;3.58;;;1.10;;
3819;SDS011;1925;51.356;9.530;2023-02-26T02:30:55;2.80;;;1.13;;
3819;SDS011;1925;51.356;9.530;2023-02-26T02:33:21;4.07;;;2.47;;
3819;SDS011;1925;51.356;9.530;2023-02-26T02:35:51;4.28;;;1.80;;
3819;SDS011;1925;51.356;9.530;2023-02-26T02:38:20;3.50;;;1.40;;
3819;SDS011;1925;51.356;9.530;2023-02-26T02:40:50;4.03;;;1.30;;
3819;SDS011;1925;51.356;9.530;2023-02-26T02:43:21;3.90;;;1.50;;
3819;SDS011;1925;51.356;9.530;2023-02-26T02:45:53;2.70;;;0.98;;
3819;SDS011;1925;51.356;9.530;2023-02-26T02:50:48;3.15;;;1.70;;
3819;SDS011;1925;51.356;9.530;2023-02-26T02:53:20;3.65;;;1.50;;
3819;SDS011;1925;51.356;9.530;2023-02-26T02:55:57;3.85;;;1.65;;
3819;SDS011;1925;51.356;9.530;2023-02-26T02:58:28;3.42;;;1.05;;
3819;SDS011;1925;51.356;9.530;2023-02-26T03:00:56;2.85;;;0.80;;
3819;SDS011;1925;51.356;9.530;2023-02-26T03:05:57;1.55;;;0.98;;
3819;SDS011;1925;51.356;9.530;2023-02-26T03:08:25;2.77;;;1.20;;
3819;SDS011;1925;51.356;9.530;2023-02-26T03:10:52;2.15;;;1.25;;
3819;SDS011;1925;51.356;9.530;2023-02-26T03:13:22;4.57;;;1.65;;
3819;SDS011;1925;51.356;9.530;2023-02-26T03:16:23;4.40;;;1.27;;
3819;SDS011;1925;51.356;9.530;2023-02-26T03:27:04;3.30;;;1.30;;
3819;SDS011;1925;51.356;9.530;2023-02-26T03:29:54;4.63;;;1.90;;
3819;SDS011;1925;51.356;9.530;2023-02-26T03:32:31;6.90;;;3.60;;
3819;SDS011;1925;51.356;9.530;2023-02-26T03:35:06;9.30;;;4.70;;
3819;SDS011;1925;51.356;9.530;2023-02-26T03:37:38;5.28;;;4.00;;
3819;SDS011;1925;51.356;9.530;2023-02-26T03:40:09;3.80;;;2.40;;
3819;SDS011;1925;51.356;9.530;2023-02-26T03:42:41;7.68;;;1.67;;
3819;SDS011;1925;51.356;9.530;2023-02-26T03:45:10;2.45;;;1.00;;
3819;SDS011;1925;51.356;9.530;2023-02-26T03:47:38;2.05;;;1.83;;
3819;SDS011;1925;51.356;9.530;2023-02-26T03:50:06;2.90;;;1.35;;
3819;SDS011;1925;51.356;9.530;2023-02-26T03:52:34;5.95;;;2.13;;
3819;SDS011;1925;51.356;9.530;2023-02-26T03:55:07;3.85;;;2.33;;
3819;SDS011;1925;51.356;9.530;2023-02-26T03:57:34;5.20;;;2.40;;
3819;SDS011;1925;51.356;9.530;2023-02-26T04:00:00;4.97;;;1.77;;
3819;SDS011;1925;51.356;9.530;2023-02-26T04:04:53;5.43;;;2.40;;
3819;SDS011;1925;51.356;9.530;2023-02-26T04:07:21;4.15;;;1.65;;
3819;SDS011;1925;51.356;9.530;2023-02-26T04:09:48;4.93;;;1.52;;
3819;SDS011;1925;51.356;9.530;2023-02-26T04:12:14;4.90;;;1.40;;
3819;SDS011;1925;51.356;9.530;2023-02-26T04:14:40;4.25;;;1.75;;
3819;SDS011;1925;51.356;9.530;2023-02-26T04:17:06;2.30;;;1.60;;
3819;SDS011;1925;51.356;9.530;2023-02-26T04:19:32;1.52;;;1.10;;
3819;SDS011;1925;51.356;9.530;2023-02-26T04:21:58;3.27;;;1.40;;
3819;SDS011;1925;51.356;9.530;2023-02-26T04:24:24;5.10;;;1.73;;
3819;SDS011;1925;51.356;9.530;2023-02-26T04:26:50;3.87;;;1.80;;
3819;SDS011;1925;51.356;9.530;2023-02-26T04:29:16;2.50;;;1.37;;
3819;SDS011;1925;51.356;9.530;2023-02-26T04:31:42;3.27;;;1.97;;
3819;SDS011;1925;51.356;9.530;2023-02-26T04:34:08;2.43;;;1.60;;
3819;SDS011;1925;51.356;9.530;2023-02-26T04:36:33;2.13;;;1.83;;
3819;SDS011;1925;51.356;9.530;2023-02-26T04:38:59;2.00;;;1.73;;
3819;SDS011;1925;51.356;9.530;2023-02-26T04:41:25;4.05;;;1.45;;
3819;SDS011;1925;51.356;9.530;2023-02-26T04:43:51;2.80;;;1.60;;
3819;SDS011;1925;51.356;9.530;2023-02-26T04:46:17;5.37;;;1.70;;
3819;SDS011;1925;51.356;9.530;2023-02-26T04:48:43;3.95;;;1.85;;
3819;SDS011;1925;51.356;9.530;2023-02-26T04:51:09;2.07;;;1.70;;
3819;SDS011;1925;51.356;9.530;2023-02-26T04:53:35;5.05;;;2.30;;
3819;SDS011;1925;51.356;9.530;2023-02-26T04:56:01;3.33;;;1.70;;
3819;SDS011;1925;51.356;9.530;2023-02-26T04:58:27;4.50;;;1.63;;
3819;SDS011;1925;51.356;9.530;2023-02-26T05:00:53;4.30;;;1.70;;
3819;SDS011;1925;51.356;9.530;2023-02-26T05:03:19;2.07;;;1.50;;
3819;SDS011;1925;51.356;9.530;2023-02-26T05:05:45;5.70;;;2.75;;
3819;SDS011;1925;51.356;9.530;2023-02-26T05:08:11;6.43;;;2.28;;
3819;SDS011;1925;51.356;9.530;2023-02-26T05:10:37;4.55;;;1.85;;
3819;SDS011;1925;51.356;9.530;2023-02-26T05:13:03;4.38;;;1.48;;
3819;SDS011;1925;51.356;9.530;2023-02-26T05:15:29;2.70;;;1.73;;
3819;SDS011;1925;51.356;9.530;2023-02-26T05:17:55;2.00;;;1.53;;
3819;SDS011;1925;51.356;9.530;2023-02-26T05:20:21;2.40;;;2.20;;
3819;SDS011;1925;51.356;9.530;2023-02-26T05:22:47;3.80;;;1.70;;
3819;SDS011;1925;51.356;9.530;2023-02-26T05:25:13;2.33;;;1.63;;
3819;SDS011;1925;51.356;9.530;2023-02-26T05:27:39;1.40;;;1.20;;
3819;SDS011;1925;51.356;9.530;2023-02-26T05:30:09;5.78;;;1.65;;
3819;SDS011;1925;51.356;9.530;2023-02-26T05:32:36;2.13;;;1.45;;
3819;SDS011;1925;51.356;9.530;2023-02-26T05:35:02;3.17;;;1.33;;
3819;SDS011;1925;51.356;9.530;2023-02-26T05:37:28;2.72;;;1.70;;
3819;SDS011;1925;51.356;9.530;2023-02-26T05:39:54;4.47;;;2.08;;
3819;SDS011;1925;51.356;9.530;2023-02-26T05:42:20;3.57;;;1.90;;
3819;SDS011;1925;51.356;9.530;2023-02-26T05:44:46;3.10;;;1.47;;
3819;SDS011;1925;51.356;9.530;2023-02-26T05:47:12;4.47;;;1.50;;
3819;SDS011;1925;51.356;9.530;2023-02-26T05:49:38;2.43;;;1.63;;
3819;SDS011;1925;51.356;9.530;2023-02-26T05:52:04;4.03;;;1.40;;
3819;SDS011;1925;51.356;9.530;2023-02-26T05:54:30;1.80;;;1.40;;
3819;SDS011;1925;51.356;9.530;2023-02-26T05:56:56;3.50;;;1.40;;
3819;SDS011;1925;51.356;9.530;2023-02-26T05:59:22;1.85;;;1.65;;
3819;SDS011;1925;51.356;9.530;2023-02-26T06:01:48;3.13;;;1.88;;
3819;SDS011;1925;51.356;9.530;2023-02-26T06:04:14;4.00;;;1.80;;
3819;SDS011;1925;51.356;9.530;2023-02-26T06:06:40;2.03;;;1.60;;
3819;SDS011;1925;51.356;9.530;2023-02-26T06:09:06;2.80;;;1.40;;
3819;SDS011;1925;51.356;9.530;2023-02-26T06:11:32;3.28;;;1.60;;
3819;SDS011;1925;51.356;9.530;2023-02-26T06:13:58;3.90;;;1.37;;
3819;SDS011;1925;51.356;9.530;2023-02-26T06:16:24;1.83;;;1.42;;
3819;SDS011;1925;51.356;9.530;2023-02-26T06:18:50;4.00;;;1.90;;
3819;SDS011;1925;51.356;9.530;2023-02-26T06:21:16;3.53;;;1.83;;
3819;SDS011;1925;51.356;9.530;2023-02-26T06:23:43;1.80;;;1.30;;
3819;SDS011;1925;51.356;9.530;2023-02-26T06:26:09;4.38;;;1.35;;
3819;SDS011;1925;51.356;9.530;2023-02-26T06:28:35;3.50;;;1.93;;
3819;SDS011;1925;51.356;9.530;2023-02-26T06:31:01;2.20;;;1.35;;
3819;SDS011;1925;51.356;9.530;2023-02-26T06:33:27;2.95;;;1.35;;
3819;SDS011;1925;51.356;9.530;2023-02-26T06:35:53;6.90;;;1.27;;
3819;SDS011;1925;51.356;9.530;2023-02-26T06:38:21;1.77;;;1.67;;
3819;SDS011;1925;51.356;9.530;2023-02-26T06:40:48;1.85;;;1.25;;
3819;SDS011;1925;51.356;9.530;2023-02-26T06:43:14;3.00;;;1.27;;
3819;SDS011;1925;51.356;9.530;2023-02-26T06:45:40;2.60;;;1.65;;
3819;SDS011;1925;51.356;9.530;2023-02-26T06:48:06;2.23;;;1.30;;
3819;SDS011;1925;51.356;9.530;2023-02-26T06:50:31;7.10;;;2.33;;
3819;SDS011;1925;51.356;9.530;2023-02-26T06:52:57;2.80;;;1.30;;
3819;SDS011;1925;51.356;9.530;2023-02-26T06:55:23;2.80;;;1.48;;
3819;SDS011;1925;51.356;9.530;2023-02-26T06:57:51;2.58;;;1.35;;
3819;SDS011;1925;51.356;9.530;2023-02-26T07:00:17;1.58;;;1.20;;
3819;SDS011;1925;51.356;9.530;2023-02-26T07:02:43;4.80;;;1.85;;
3819;SDS011;1925;51.356;9.530;2023-02-26T07:05:09;3.40;;;1.30;;
3819;SDS011;1925;51.356;9.530;2023-02-26T07:07:35;2.80;;;1.40;;
3819;SDS011;1925;51.356;9.530;2023-02-26T07:10:01;2.80;;;1.47;;
3819;SDS011;1925;51.356;9.530;2023-02-26T07:12:27;5.00;;;1.73;;
3819;SDS011;1925;51.356;9.530;2023-02-26T07:14:53;1.50;;;1.30;;
3819;SDS011;1925;51.356;9.530;2023-02-26T07:17:19;1.87;;;1.23;;
3819;SDS011;1925;51.356;9.530;2023-02-26T07:19:46;5.20;;;1.55;;
3819;SDS011;1925;51.356;9.530;2023-02-26T07:22:12;1.38;;;1.27;;
3819;SDS011;1925;51.356;9.530;2023-02-26T07:24:38;4.68;;;1.60;;
3819;SDS011;1925;51.356;9.530;2023-02-26T07:27:04;2.27;;;1.47;;
3819;SDS011;1925;51.356;9.530;2023-02-26T07:29:30;6.53;;;1.40;;
3819;SDS011;1925;51.356;9.530;2023-02-26T07:31:56;3.00;;;1.67;;
3819;SDS011;1925;51.356;9.530;2023-02-26T07:34:22;2.40;;;1.23;;
3819;SDS011;1925;51.356;9.530;2023-02-26T07:36:48;2.50;;;1.57;;
3819;SDS011;1925;51.356;9.530;2023-02-26T07:39:14;3.53;;;1.23;;
3819;SDS011;1925;51.356;9.530;2023-02-26T07:41:40;2.23;;;1.40;;
3819;SDS011;1925;51.356;9.530;2023-02-26T07:44:06;2.07;;;1.13;;
3819;SDS011;1925;51.356;9.530;2023-02-26T07:46:32;1.30;;;1.13;;
3819;SDS011;1925;51.356;9.530;2023-02-26T07:48:58;1.10;;;0.95;;
3819;SDS011;1925;51.356;9.530;2023-02-26T07:51:24;3.43;;;1.10;;
3819;SDS011;1925;51.356;9.530;2023-02-26T07:53:50;1.60;;;1.10;;
3819;SDS011;1925;51.356;9.530;2023-02-26T07:56:15;3.30;;;1.30;;
3819;SDS011;1925;51.356;9.530;2023-02-26T07:58:41;4.53;;;1.30;;
3819;SDS011;1925;51.356;9.530;2023-02-26T08:01:07;1.27;;;0.80;;
3819;SDS011;1925;51.356;9.530;2023-02-26T08:03:33;3.53;;;1.37;;
3819;SDS011;1925;51.356;9.530;2023-02-26T08:05:59;2.27;;;1.20;;
3819;SDS011;1925;51.356;9.530;2023-02-26T08:08:26;2.72;;;1.13;;
3819;SDS011;1925;51.356;9.530;2023-02-26T08:10:52;2.80;;;1.35;;
3819;SDS011;1925;51.356;9.530;2023-02-26T08:13:18;2.40;;;1.30;;
3819;SDS011;1925;51.356;9.530;2023-02-26T08:15:43;4.00;;;1.30;;
3819;SDS011;1925;51.356;9.530;2023-02-26T08:18:10;2.40;;;1.38;;
3819;SDS011;1925;51.356;9.530;2023-02-26T08:20:36;2.50;;;1.45;;
3819;SDS011;1925;51.356;9.530;2023-02-26T08:23:02;3.65;;;1.10;;
3819;SDS011;1925;51.356;9.530;2023-02-26T08:25:28;4.93;;;1.10;;
3819;SDS011;1925;51.356;9.530;2023-02-26T08:27:54;5.40;;;1.30;;
3819;SDS011;1925;51.356;9.530;2023-02-26T08:30:22;5.15;;;1.00;;
3819;SDS011;1925;51.356;9.530;2023-02-26T08:32:48;2.50;;;0.80;;
3819;SDS011;1925;51.356;9.530;2023-02-26T08:35:14;1.42;;;0.80;;
3819;SDS011;1925;51.356;9.530;2023-02-26T08:37:40;2.45;;;1.25;;
3819;SDS011;1925;51.356;9.530;2023-02-26T08:40:07;2.92;;;1.20;;
3819;SDS011;1925;51.356;9.530;2023-02-26T08:42:33;0.90;;;0.73;;
3819;SDS011;1925;51.356;9.530;2023-02-26T08:44:59;3.47;;;1.52;;
3819;SDS011;1925;51.356;9.530;2023-02-26T08:47:25;2.10;;;0.80;;
3819;SDS011;1925;51.356;9.530;2023-02-26T08:49:51;2.77;;;0.93;;
3819;SDS011;1925;51.356;9.530;2023-02-26T08:52:17;1.97;;;0.97;;
3819;SDS011;1925;51.356;9.530;2023-02-26T08:54:43;2.07;;;0.87;;
3819;SDS011;1925;51.356;9.530;2023-02-26T08:57:09;3.23;;;1.20;;
3819;SDS011;1925;51.356;9.530;2023-02-26T08:59:35;2.70;;;0.80;;
3819;SDS011;1925;51.356;9.530;2023-02-26T09:02:01;2.30;;;0.80;;
3819;SDS011;1925;51.356;9.530;2023-02-26T09:04:26;1.37;;;0.90;;
3819;SDS011;1925;51.356;9.530;2023-02-26T09:06:52;1.43;;;0.83;;
3819;SDS011;1925;51.356;9.530;2023-02-26T09:09:19;2.25;;;1.20;;
3819;SDS011;1925;51.356;9.530;2023-02-26T09:11:45;1.20;;;0.60;;
3819;SDS011;1925;51.356;9.530;2023-02-26T09:14:11;1.90;;;1.00;;
3819;SDS011;1925;51.356;9.530;2023-02-26T09:16:37;2.25;;;0.80;;
3819;SDS011;1925;51.356;9.530;2023-02-26T09:19:03;1.63;;;1.00;;
3819;SDS011;1925;51.356;9.530;2023-02-26T09:21:29;2.58;;;0.93;;
3819;SDS011;1925;51.356;9.530;2023-02-26T09:23:56;4.65;;;1.00;;
3819;SDS011;1925;51.356;9.530;2023-02-26T09:26:22;2.15;;;1.05;;
3819;SDS011;1925;51.356;9.530;2023-02-26T09:28:48;1.77;;;0.90;;
3819;SDS011;1925;51.356;9.530;2023-02-26T09:31:14;1.20;;;0.80;;
3819;SDS011;1925;51.356;9.530;2023-02-26T09:33:40;2.03;;;1.10;;
3819;SDS011;1925;51.356;9.530;2023-02-26T09:36:06;1.53;;;0.80;;
3819;SDS011;1925;51.356;9.530;2023-02-26T09:38:32;1.90;;;0.70;;
3819;SDS011;1925;51.356;9.530;2023-02-26T09:41:07;1.55;;;0.73;;
3819;SDS011;1925;51.356;9.530;2023-02-26T09:46:30;2.50;;;0.88;;
3819;SDS011;1925;51.356;9.530;2023-02-26T09:49:15;1.40;;;0.60;;
3819;SDS011;1925;51.356;9.530;2023-02-26T09:51:43;2.08;;;0.73;;
3819;SDS011;1925;51.356;9.530;2023-02-26T09:54:15;2.65;;;1.00;;
3819;SDS011;1925;51.356;9.530;2023-02-26T09:56:41;1.67;;;0.90;;
3819;SDS011;1925;51.356;9.530;2023-02-26T09:59:08;2.35;;;0.75;;
3819;SDS011;1925;51.356;9.530;2023-02-26T10:01:39;1.15;;;0.93;;
3819;SDS011;1925;51.356;9.530;2023-02-26T10:04:26;1.30;;;0.80;;
3819;SDS011;1925;51.356;9.530;2023-02-26T10:12:03;5.53;;;0.75;;
3819;SDS011;1925;51.356;9.530;2023-02-26T10:14:32;1.45;;;0.60;;
3819;SDS011;1925;51.356;9.530;2023-02-26T10:17:02;3.00;;;0.75;;
3819;SDS011;1925;51.356;9.530;2023-02-26T10:19:31;2.03;;;1.00;;
3819;SDS011;1925;51.356;9.530;2023-02-26T10:24:45;0.90;;;0.65;;
3819;SDS011;1925;51.356;9.530;2023-02-26T10:27:14;1.80;;;0.90;;
3819;SDS011;1925;51.356;9.530;2023-02-26T10:29:50;2.08;;;1.10;;
3819;SDS011;1925;51.356;9.530;2023-02-26T10:32:29;0.80;;;0.60;;
3819;SDS011;1925;51.356;9.530;2023-02-26T10:34:59;4.13;;;0.65;;
3819;SDS011;1925;51.356;9.530;2023-02-26T10:42:38;1.30;;;0.63;;
3819;SDS011;1925;51.356;9.530;2023-02-26T10:47:59;1.52;;;0.70;;
3819;SDS011;1925;51.356;9.530;2023-02-26T10:50:29;1.70;;;0.63;;
3819;SDS011;1925;51.356;9.530;2023-02-26T10:52:55;1.10;;;0.70;;
3819;SDS011;1925;51.356;9.530;2023-02-26T11:00:33;1.55;;;0.90;;
3819;SDS011;1925;51.356;9.530;2023-02-26T11:03:03;3.55;;;0.77;;
3819;SDS011;1925;51.356;9.530;2023-02-26T11:05:30;2.75;;;0.95;;
3819;SDS011;1925;51.356;9.530;2023-02-26T11:07:58;1.38;;;0.57;;
3819;SDS011;1925;51.356;9.530;2023-02-26T11:10:26;1.45;;;0.50;;
3819;SDS011;1925;51.356;9.530;2023-02-26T11:12:53;1.50;;;0.63;;
3819;SDS011;1925;51.356;9.530;2023-02-26T11:15:20;2.25;;;0.70;;
3819;SDS011;1925;51.356;9.530;2023-02-26T11:17:46;0.93;;;0.60;;
3819;SDS011;1925;51.356;9.530;2023-02-26T11:22:48;1.33;;;0.55;;
3819;SDS011;1925;51.356;9.530;2023-02-26T11:25:16;1.90;;;0.70;;
3819;SDS011;1925;51.356;9.530;2023-02-26T11:27:43;0.75;;;0.50;;
3819;SDS011;1925;51.356;9.530;2023-02-26T11:30:18;1.42;;;0.60;;
3819;SDS011;1925;51.356;9.530;2023-02-26T11:32:45;1.38;;;0.50;;
3819;SDS011;1925;51.356;9.530;2023-02-26T11:35:14;2.17;;;0.77;;
3819;SDS011;1925;51.356;9.530;2023-02-26T11:37:45;1.13;;;0.80;;
3819;SDS011;1925;51.356;9.530;2023-02-26T11:40:16;1.73;;;0.75;;
3819;SDS011;1925;51.356;9.530;2023-02-26T11:42:44;2.50;;;0.88;;
3819;SDS011;1925;51.356;9.530;2023-02-26T11:45:13;2.28;;;0.70;;
3819;SDS011;1925;51.356;9.530;2023-02-26T11:47:41;2.92;;;0.85;;
3819;SDS011;1925;51.356;9.530;2023-02-26T11:50:15;1.58;;;0.70;;
3819;SDS011;1925;51.356;9.530;2023-02-26T11:52:43;1.80;;;0.60;;
3819;SDS011;1925;51.356;9.530;2023-02-26T11:55:16;2.13;;;1.30;;
3819;SDS011;1925;51.356;9.530;2023-02-26T11:57:43;1.90;;;0.90;;
3819;SDS011;1925;51.356;9.530;2023-02-26T12:00:16;1.73;;;0.80;;
3819;SDS011;1925;51.356;9.530;2023-02-26T12:02:43;2.10;;;0.90;;
3819;SDS011;1925;51.356;9.530;2023-02-26T12:05:09;2.70;;;0.93;;
3819;SDS011;1925;51.356;9.530;2023-02-26T12:07:37;1.90;;;0.70;;
3819;SDS011;1925;51.356;9.530;2023-02-26T12:10:08;1.37;;;0.60;;
3819;SDS011;1925;51.356;9.530;2023-02-26T12:13:23;2.05;;;0.70;;
3819;SDS011;1925;51.356;9.530;2023-02-26T12:15:31;1.25;;;0.80;;
3819;SDS011;1925;51.356;9.530;2023-02-26T12:20:28;1.10;;;0.70;;
3819;SDS011;1925;51.356;9.530;2023-02-26T12:28:05;1.83;;;0.60;;
3819;SDS011;1925;51.356;9.530;2023-02-26T12:33:31;1.67;;;0.80;;
3819;SDS011;1925;51.356;9.530;2023-02-26T12:38:51;2.45;;;0.60;;
3819;SDS011;1925;51.356;9.530;2023-02-26T12:41:33;0.75;;;0.50;;
3819;SDS011;1925;51.356;9.530;2023-02-26T12:44:08;1.48;;;0.60;;
3819;SDS011;1925;51.356;9.530;2023-02-26T12:51:38;2.13;;;0.80;;
3819;SDS011;1925;51.356;9.530;2023-02-26T12:54:12;2.67;;;0.68;;
3819;SDS011;1925;51.356;9.530;2023-02-26T12:56:55;2.33;;;0.70;;
3819;SDS011;1925;51.356;9.530;2023-02-26T13:03:11;2.28;;;0.98;;
3819;SDS011;1925;51.356;9.530;2023-02-26T13:08:31;1.45;;;0.80;;
3819;SDS011;1925;51.356;9.530;2023-02-26T13:18:22;2.07;;;0.80;;
3819;SDS011;1925;51.356;9.530;2023-02-26T13:21:09;1.08;;;0.60;;
3819;SDS011;1925;51.356;9.530;2023-02-26T13:23:52;3.53;;;0.60;;
3819;SDS011;1925;51.356;9.530;2023-02-26T13:26:19;1.40;;;0.65;;
3819;SDS011;1925;51.356;9.530;2023-02-26T13:33:58;3.53;;;0.80;;
3819;SDS011;1925;51.356;9.530;2023-02-26T13:36:26;1.65;;;0.75;;
3819;SDS011;1925;51.356;9.530;2023-02-26T13:38:56;1.13;;;0.70;;
3819;SDS011;1925;51.356;9.530;2023-02-26T13:51:46;2.05;;;0.75;;
3819;SDS011;1925;51.356;9.530;2023-02-26T14:06:50;3.55;;;0.70;;
3819;SDS011;1925;51.356;9.530;2023-02-26T14:14:35;2.72;;;0.90;;
3819;SDS011;1925;51.356;9.530;2023-02-26T14:19:31;3.37;;;1.07;;
3819;SDS011;1925;51.356;9.530;2023-02-26T14:24:36;1.20;;;0.90;;
3819;SDS011;1925;51.356;9.530;2023-02-26T14:29:42;2.20;;;1.15;;
3819;SDS011;1925;51.356;9.530;2023-02-26T14:34:36;1.20;;;0.80;;
3819;SDS011;1925;51.356;9.530;2023-02-26T14:37:07;0.73;;;0.68;;
3819;SDS011;1925;51.356;9.530;2023-02-26T14:39:41;1.10;;;0.60;;
3819;SDS011;1925;51.356;9.530;2023-02-26T14:42:21;2.28;;;1.48;;
3819;SDS011;1925;51.356;9.530;2023-02-26T14:44:53;1.42;;;0.70;;
3819;SDS011;1925;51.356;9.530;2023-02-26T14:47:21;1.13;;;0.70;;
3819;SDS011;1925;51.356;9.530;2023-02-26T14:49:47;2.70;;;1.13;;
3819;SDS011;1925;51.356;9.530;2023-02-26T14:57:24;1.35;;;0.68;;
3819;SDS011;1925;51.356;9.530;2023-02-26T15:05:40;2.13;;;0.70;;
3819;SDS011;1925;51.356;9.530;2023-02-26T15:13:56;2.90;;;0.57;;
3819;SDS011;1925;51.356;9.530;2023-02-26T15:19:11;1.52;;;0.68;;
3819;SDS011;1925;51.356;9.530;2023-02-26T15:21:42;0.70;;;0.60;;
3819;SDS011;1925;51.356;9.530;2023-02-26T15:24:11;1.25;;;0.80;;
3819;SDS011;1925;51.356;9.530;2023-02-26T15:26:43;0.93;;;0.60;;
3819;SDS011;1925;51.356;9.530;2023-02-26T15:29:10;1.02;;;0.63;;
3819;SDS011;1925;51.356;9.530;2023-02-26T15:31:41;1.50;;;0.70;;
3819;SDS011;1925;51.356;9.530;2023-02-26T15:34:11;0.80;;;0.60;;
3819;SDS011;1925;51.356;9.530;2023-02-26T15:36:39;1.10;;;0.60;;
3819;SDS011;1925;51.356;9.530;2023-02-26T15:39:07;1.83;;;1.00;;
3819;SDS011;1925;51.356;9.530;2023-02-26T15:41:33;1.73;;;1.33;;
3819;SDS011;1925;51.356;9.530;2023-02-26T15:44:01;1.50;;;1.02;;
3819;SDS011;1925;51.356;9.530;2023-02-26T15:46:32;1.20;;;0.90;;
3819;SDS011;1925;51.356;9.530;2023-02-26T15:49:01;1.33;;;0.80;;
3819;SDS011;1925;51.356;9.530;2023-02-26T15:51:27;1.38;;;0.75;;
3819;SDS011;1925;51.356;9.530;2023-02-26T15:53:53;1.45;;;0.65;;
3819;SDS011;1925;51.356;9.530;2023-02-26T15:56:22;3.08;;;0.60;;
3819;SDS011;1925;51.356;9.530;2023-02-26T15:58:51;1.63;;;0.70;;
3819;SDS011;1925;51.356;9.530;2023-02-26T16:01:19;1.00;;;0.70;;
3819;SDS011;1925;51.356;9.530;2023-02-26T16:03:45;1.95;;;1.67;;
3819;SDS011;1925;51.356;9.530;2023-02-26T16:06:12;3.35;;;3.05;;
3819;SDS011;1925;51.356;9.530;2023-02-26T16:08:40;1.58;;;0.82;;
3819;SDS011;1925;51.356;9.530;2023-02-26T16:11:07;1.73;;;0.65;;
3819;SDS011;1925;51.356;9.530;2023-02-26T16:13:34;1.50;;;0.50;;
3819;SDS011;1925;51.356;9.530;2023-02-26T16:16:04;3.28;;;0.70;;
3819;SDS011;1925;51.356;9.530;2023-02-26T16:18:33;1.08;;;0.73;;
3819;SDS011;1925;51.356;9.530;2023-02-26T16:21:00;1.55;;;0.52;;
3819;SDS011;1925;51.356;9.530;2023-02-26T16:23:45;3.25;;;0.80;;
3819;SDS011;1925;51.356;9.530;2023-02-26T16:26:15;1.27;;;0.60;;
3819;SDS011;1925;51.356;9.530;2023-02-26T16:28:42;1.63;;;0.75;;
3819;SDS011;1925;51.356;9.530;2023-02-26T16:31:19;1.38;;;0.70;;
3819;SDS011;1925;51.356;9.530;2023-02-26T16:33:53;2.10;;;0.80;;
3819;SDS011;1925;51.356;9.530;2023-02-26T16:36:19;2.00;;;0.70;;
3819;SDS011;1925;51.356;9.530;2023-02-26T16:38:50;1.65;;;0.70;;
3819;SDS011;1925;51.356;9.530;2023-02-26T16:41:24;0.90;;;0.73;;
3819;SDS011;1925;51.356;9.530;2023-02-26T16:43:54;1.23;;;0.70;;
3819;SDS011;1925;51.356;9.530;2023-02-26T16:46:40;2.25;;;0.77;;
3819;SDS011;1925;51.356;9.530;2023-02-26T16:49:14;2.40;;;1.40;;
3819;SDS011;1925;51.356;9.530;2023-02-26T16:51:43;1.70;;;0.90;;
3819;SDS011;1925;51.356;9.530;2023-02-26T16:54:22;1.90;;;0.85;;
3819;SDS011;1925;51.356;9.530;2023-02-26T16:56:53;1.83;;;1.00;;
3819;SDS011;1925;51.356;9.530;2023-02-26T16:59:21;2.00;;;0.73;;
3819;SDS011;1925;51.356;9.530;2023-02-26T17:01:50;1.30;;;0.68;;
3819;SDS011;1925;51.356;9.530;2023-02-26T17:04:17;2.38;;;1.17;;
3819;SDS011;1925;51.356;9.530;2023-02-26T17:06:44;1.23;;;1.13;;
3819;SDS011;1925;51.356;9.530;2023-02-26T17:12:03;4.15;;;2.05;;
3819;SDS011;1925;51.356;9.530;2023-02-26T17:14:30;3.10;;;1.75;;
3819;SDS011;1925;51.356;9.530;2023-02-26T17:16:57;3.53;;;1.50;;
3819;SDS011;1925;51.356;9.530;2023-02-26T17:19:23;5.22;;;1.38;;
3819;SDS011;1925;51.356;9.530;2023-02-26T17:21:51;1.80;;;1.33;;
3819;SDS011;1925;51.356;9.530;2023-02-26T17:24:19;2.00;;;1.80;;
3819;SDS011;1925;51.356;9.530;2023-02-26T17:26:45;1.90;;;1.70;;
3819;SDS011;1925;51.356;9.530;2023-02-26T17:29:18;2.75;;;1.80;;
3819;SDS011;1925;51.356;9.530;2023-02-26T17:31:47;2.63;;;2.08;;
3819;SDS011;1925;51.356;9.530;2023-02-26T17:34:13;4.80;;;2.72;;
3819;SDS011;1925;51.356;9.530;2023-02-26T17:36:39;3.53;;;1.50;;
3819;SDS011;1925;51.356;9.530;2023-02-26T17:39:05;4.75;;;2.40;;
3819;SDS011;1925;51.356;9.530;2023-02-26T17:41:31;3.10;;;1.92;;
3819;SDS011;1925;51.356;9.530;2023-02-26T17:43:58;4.35;;;1.75;;
3819;SDS011;1925;51.356;9.530;2023-02-26T17:46:24;3.17;;;1.73;;
3819;SDS011;1925;51.356;9.530;2023-02-26T17:48:50;3.05;;;1.65;;
3819;SDS011;1925;51.356;9.530;2023-02-26T17:51:16;2.80;;;2.50;;
3819;SDS011;1925;51.356;9.530;2023-02-26T17:53:42;3.63;;;2.73;;
3819;SDS011;1925;51.356;9.530;2023-02-26T17:56:11;3.65;;;2.10;;
3819;SDS011;1925;51.356;9.530;2023-02-26T17:58:39;6.30;;;2.42;;
3819;SDS011;1925;51.356;9.530;2023-02-26T18:01:05;6.00;;;3.17;;
3819;SDS011;1925;51.356;9.530;2023-02-26T18:03:33;8.52;;;4.47;;
3819;SDS011;1925;51.356;9.530;2023-02-26T18:05:59;4.80;;;3.60;;